Time;durP1;ratioP1;P1;durP2;ratioP2;P2;SDS_P1;SDS_P2;PMS_P1;PMS_P2;Temp;Humidity;BMP_temperature;BMP_pressure;BME280_temperature;BME280_humidity;BME280_pressure;Samples;Min_cycle;Max_cycle;Signal;HPM_P1;HPM_P2
2023/08/22 00:01:55;;;;;;;9.73;6.20;;;;;;;;;;4992795;28;20058;-47
2023/08/22 00:04:21;;;;;;;12.60;5.82;;;;;;;;;;4994978;28;20094;-47
2023/08/22 00:06:46;;;;;;;7.82;5.85;;;;;;;;;;4990841;28;20134;-48
2023/08/22 00:09:12;;;;;;;14.23;5.80;;;;;;;;;;4996122;28;20034;-48
2023/08/22 00:11:37;;;;;;;11.35;5.68;;;;;;;;;;4993990;28;20027;-47
2023/08/22 00:14:03;;;;;;;10.60;6.13;;;;;;;;;;4994343;28;20048;-47
2023/08/22 00:16:29;;;;;;;8.30;5.88;;;;;;;;;;4996241;28;20097;-49
2023/08/22 00:18:55;;;;;;;11.38;5.78;;;;;;;;;;5001295;28;20049;-48
2023/08/22 00:21:20;;;;;;;9.13;5.55;;;;;;;;;;4995615;28;20034;-49
2023/08/22 00:23:46;;;;;;;12.48;6.03;;;;;;;;;;4993335;28;20404;-49
2023/08/22 00:26:11;;;;;;;10.10;6.30;;;;;;;;;;4993539;28;20266;-46
2023/08/22 00:28:37;;;;;;;9.57;6.00;;;;;;;;;;4995931;28;20042;-47
2023/08/22 00:31:02;;;;;;;9.32;6.30;;;;;;;;;;4995406;28;20030;-49
2023/08/22 00:33:27;;;;;;;8.15;6.40;;;;;;;;;;4993638;28;20042;-50
2023/08/22 00:35:53;;;;;;;12.15;6.20;;;;;;;;;;4994008;28;20519;-48
2023/08/22 00:38:18;;;;;;;12.15;6.85;;;;;;;;;;4994870;28;20066;-49
2023/08/22 00:40:44;;;;;;;10.23;6.75;;;;;;;;;;4993248;28;20112;-51
2023/08/22 00:43:09;;;;;;;11.55;6.38;;;;;;;;;;4995418;28;20077;-46
2023/08/22 00:45:36;;;;;;;7.32;6.63;;;;;;;;;;4995055;28;20388;-47
2023/08/22 00:48:02;;;;;;;10.75;6.63;;;;;;;;;;4995699;28;20114;-49
2023/08/22 00:50:28;;;;;;;9.82;6.18;;;;;;;;;;4994405;28;20496;-49
2023/08/22 00:52:53;;;;;;;12.85;5.90;;;;;;;;;;4987933;28;20062;-48
2023/08/22 00:55:19;;;;;;;9.57;6.20;;;;;;;;;;4994008;28;20034;-48
2023/08/22 00:57:45;;;;;;;7.03;5.85;;;;;;;;;;4995132;28;20089;-46
2023/08/22 01:00:10;;;;;;;11.52;6.47;;;;;;;;;;4993771;28;20085;-51
2023/08/22 01:02:38;;;;;;;9.15;6.60;;;;;;;;;;4989536;28;20035;-48
2023/08/22 01:05:05;;;;;;;9.50;5.95;;;;;;;;;;4986111;28;20458;-50
2023/08/22 01:07:36;;;;;;;7.13;6.43;;;;;;;;;;4995756;28;20392;-47
2023/08/22 01:10:09;;;;;;;14.13;6.15;;;;;;;;;;4995349;28;20023;-47
2023/08/22 01:12:53;;;;;;;11.93;6.57;;;;;;;;;;4989453;28;20045;-49
2023/08/22 01:15:24;;;;;;;11.05;6.72;;;;;;;;;;4992689;28;20037;-49
2023/08/22 01:17:51;;;;;;;9.73;6.63;;;;;;;;;;4995262;28;20035;-49
2023/08/22 01:20:17;;;;;;;13.55;7.20;;;;;;;;;;4994232;28;20907;-50
2023/08/22 01:22:42;;;;;;;11.20;6.50;;;;;;;;;;4991912;28;20117;-49
2023/08/22 01:25:08;;;;;;;8.10;6.22;;;;;;;;;;4991772;28;20026;-48
2023/08/22 01:27:59;;;;;;;7.80;5.95;;;;;;;;;;4999068;28;20464;-47
2023/08/22 01:30:37;;;;;;;11.35;6.35;;;;;;;;;;4972739;28;20113;-53
2023/08/22 01:33:11;;;;;;;11.40;6.20;;;;;;;;;;4997260;28;20046;-48
2023/08/22 01:35:39;;;;;;;13.60;7.07;;;;;;;;;;4998946;28;20034;-52
2023/08/22 01:38:05;;;;;;;11.80;6.75;;;;;;;;;;4998936;28;20085;-47
2023/08/22 01:40:31;;;;;;;12.20;6.10;;;;;;;;;;4997671;28;20034;-47
2023/08/22 01:42:57;;;;;;;12.98;6.13;;;;;;;;;;4997553;28;20069;-49
2023/08/22 01:45:22;;;;;;;6.68;5.95;;;;;;;;;;4998134;28;20424;-51
2023/08/22 01:47:48;;;;;;;9.45;6.13;;;;;;;;;;4997847;28;20057;-50
2023/08/22 01:50:13;;;;;;;7.85;6.97;;;;;;;;;;4999298;28;20042;-47
2023/08/22 01:52:39;;;;;;;7.05;6.38;;;;;;;;;;4997744;28;20037;-50
2023/08/22 01:55:05;;;;;;;6.88;6.13;;;;;;;;;;4996402;28;20061;-50
2023/08/22 01:57:30;;;;;;;9.10;6.43;;;;;;;;;;4998346;28;20062;-48
2023/08/22 01:59:56;;;;;;;10.05;6.13;;;;;;;;;;4997102;28;20076;-49
2023/08/22 02:02:21;;;;;;;9.15;6.18;;;;;;;;;;4997113;28;20037;-53
2023/08/22 02:04:46;;;;;;;8.68;6.13;;;;;;;;;;4995044;28;20042;-47
2023/08/22 02:07:12;;;;;;;10.13;6.05;;;;;;;;;;4994050;28;21012;-50
2023/08/22 02:09:37;;;;;;;12.70;6.40;;;;;;;;;;4993951;28;20038;-49
2023/08/22 02:12:03;;;;;;;10.73;6.47;;;;;;;;;;4997327;28;20117;-48
2023/08/22 02:14:28;;;;;;;9.02;6.72;;;;;;;;;;4994849;28;20039;-48
2023/08/22 02:16:55;;;;;;;8.48;6.55;;;;;;;;;;4998793;28;20081;-48
2023/08/22 02:19:20;;;;;;;8.50;6.78;;;;;;;;;;4996088;28;20039;-50
2023/08/22 02:21:46;;;;;;;11.50;6.70;;;;;;;;;;4996276;28;20644;-49
2023/08/22 02:24:11;;;;;;;12.70;6.20;;;;;;;;;;5004625;28;20129;-47
2023/08/22 02:26:41;;;;;;;9.75;6.07;;;;;;;;;;5000293;28;20044;-50
2023/08/22 02:29:06;;;;;;;8.32;6.45;;;;;;;;;;4997870;28;20045;-47
2023/08/22 02:31:31;;;;;;;12.30;6.22;;;;;;;;;;4997951;28;21169;-49
2023/08/22 02:33:57;;;;;;;7.07;6.40;;;;;;;;;;4995268;28;20049;-53
2023/08/22 02:36:22;;;;;;;10.30;6.22;;;;;;;;;;4997057;28;20563;-48
2023/08/22 02:38:48;;;;;;;11.40;6.80;;;;;;;;;;4999485;28;20065;-50
2023/08/22 02:41:13;;;;;;;7.25;6.25;;;;;;;;;;4997757;28;20460;-53
2023/08/22 02:43:39;;;;;;;8.65;5.75;;;;;;;;;;4990161;28;20094;-48
2023/08/22 02:46:04;;;;;;;7.78;6.63;;;;;;;;;;4997114;28;20061;-49
2023/08/22 02:48:29;;;;;;;13.02;7.05;;;;;;;;;;4997814;28;20035;-50
2023/08/22 02:50:55;;;;;;;10.98;6.68;;;;;;;;;;5001662;28;20419;-52
2023/08/22 02:53:20;;;;;;;13.85;6.53;;;;;;;;;;4993638;28;20034;-49
2023/08/22 02:55:49;;;;;;;8.50;6.60;;;;;;;;;;4998272;28;20041;-47
2023/08/22 02:58:14;;;;;;;9.23;6.80;;;;;;;;;;4997167;28;20413;-49
2023/08/22 03:00:39;;;;;;;8.95;6.53;;;;;;;;;;4993888;28;20042;-50
2023/08/22 03:03:05;;;;;;;14.43;7.22;;;;;;;;;;4994539;28;20041;-51
2023/08/22 03:05:30;;;;;;;7.63;6.88;;;;;;;;;;4996562;28;20039;-47
2023/08/22 03:07:56;;;;;;;7.90;6.18;;;;;;;;;;4995521;28;20030;-49
2023/08/22 03:10:21;;;;;;;7.30;6.40;;;;;;;;;;4997819;28;20034;-52
2023/08/22 03:12:49;;;;;;;9.05;7.13;;;;;;;;;;4994479;28;20501;-47
2023/08/22 03:15:14;;;;;;;7.25;6.43;;;;;;;;;;4996167;28;20519;-50
2023/08/22 03:17:39;;;;;;;10.68;7.05;;;;;;;;;;4998944;28;20034;-48
2023/08/22 03:20:06;;;;;;;11.27;6.55;;;;;;;;;;4999792;28;20037;-50
2023/08/22 03:22:31;;;;;;;6.97;6.20;;;;;;;;;;4994249;28;20044;-50
2023/08/22 03:24:57;;;;;;;9.90;6.90;;;;;;;;;;4992016;28;20034;-49
2023/08/22 03:27:22;;;;;;;7.32;6.13;;;;;;;;;;4997392;28;20026;-47
2023/08/22 03:29:47;;;;;;;7.30;6.28;;;;;;;;;;4993667;28;20034;-49
2023/08/22 03:32:13;;;;;;;7.45;6.70;;;;;;;;;;4995322;28;20022;-51
2023/08/22 03:34:38;;;;;;;9.10;6.97;;;;;;;;;;4997977;28;20031;-48
2023/08/22 03:37:04;;;;;;;13.32;6.65;;;;;;;;;;5002945;28;20054;-49
2023/08/22 03:39:29;;;;;;;12.05;7.13;;;;;;;;;;4994274;28;20447;-49
2023/08/22 03:41:55;;;;;;;7.38;6.22;;;;;;;;;;4994484;28;20030;-48
2023/08/22 03:44:20;;;;;;;9.90;6.78;;;;;;;;;;4996240;28;20034;-53
2023/08/22 03:46:46;;;;;;;9.27;6.82;;;;;;;;;;4996620;28;20503;-48
2023/08/22 03:49:11;;;;;;;12.88;6.55;;;;;;;;;;4993209;28;20536;-48
2023/08/22 03:51:37;;;;;;;12.40;6.78;;;;;;;;;;4995796;28;20492;-47
2023/08/22 03:54:02;;;;;;;6.95;6.35;;;;;;;;;;4988299;28;20409;-48
2023/08/22 03:56:27;;;;;;;12.07;6.78;;;;;;;;;;4994567;28;20365;-47
2023/08/22 03:58:53;;;;;;;7.43;6.78;;;;;;;;;;4987292;28;20035;-49
2023/08/22 04:01:18;;;;;;;8.40;6.63;;;;;;;;;;4993640;28;20072;-49
2023/08/22 04:03:44;;;;;;;13.48;6.22;;;;;;;;;;4990279;28;20048;-50
2023/08/22 04:06:09;;;;;;;11.02;6.68;;;;;;;;;;5008568;28;20029;-47
2023/08/22 04:08:35;;;;;;;8.50;7.07;;;;;;;;;;4995875;28;20035;-46
2023/08/22 04:11:00;;;;;;;12.43;6.95;;;;;;;;;;4995509;28;20080;-48
2023/08/22 04:13:26;;;;;;;10.65;7.20;;;;;;;;;;4992929;28;20035;-49
2023/08/22 04:15:51;;;;;;;11.98;6.60;;;;;;;;;;4995615;28;20481;-48
2023/08/22 04:18:17;;;;;;;8.68;6.38;;;;;;;;;;4994489;28;20619;-50
2023/08/22 04:20:45;;;;;;;8.15;6.82;;;;;;;;;;4996256;28;20049;-52
2023/08/22 04:23:10;;;;;;;11.15;6.55;;;;;;;;;;4994456;28;20087;-50
2023/08/22 04:25:36;;;;;;;8.07;6.85;;;;;;;;;;4988186;28;20568;-50
2023/08/22 04:28:02;;;;;;;9.50;7.35;;;;;;;;;;4995910;28;20049;-51
2023/08/22 04:30:27;;;;;;;10.57;6.63;;;;;;;;;;4995642;28;20026;-46
2023/08/22 04:32:53;;;;;;;8.70;6.55;;;;;;;;;;4991670;28;20066;-50
2023/08/22 04:35:18;;;;;;;8.63;7.72;;;;;;;;;;4996304;28;20042;-49
2023/08/22 04:37:44;;;;;;;11.82;6.78;;;;;;;;;;4996200;28;20062;-47
2023/08/22 04:40:10;;;;;;;10.95;6.32;;;;;;;;;;4993458;28;20641;-47
2023/08/22 04:42:35;;;;;;;8.48;6.85;;;;;;;;;;4993517;28;20081;-46
2023/08/22 04:45:01;;;;;;;10.48;6.65;;;;;;;;;;4993451;28;20025;-47
2023/08/22 04:47:26;;;;;;;8.18;7.05;;;;;;;;;;4994387;28;20049;-51
2023/08/22 04:49:52;;;;;;;8.35;7.00;;;;;;;;;;4996205;28;20030;-49
2023/08/22 04:52:17;;;;;;;10.90;6.82;;;;;;;;;;4993277;28;20030;-49
2023/08/22 04:54:42;;;;;;;9.52;6.88;;;;;;;;;;4995182;28;20037;-48
2023/08/22 04:57:08;;;;;;;9.55;6.93;;;;;;;;;;4996691;28;20029;-49
2023/08/22 04:59:33;;;;;;;15.02;6.90;;;;;;;;;;4993399;28;20488;-48
2023/08/22 05:01:59;;;;;;;10.13;6.70;;;;;;;;;;4997166;28;20022;-49
2023/08/22 05:04:24;;;;;;;11.18;6.75;;;;;;;;;;5005422;28;20042;-48
2023/08/22 05:06:50;;;;;;;6.88;5.90;;;;;;;;;;5000574;28;20444;-50
2023/08/22 05:09:16;;;;;;;8.82;6.22;;;;;;;;;;4997035;28;20038;-49
2023/08/22 05:11:42;;;;;;;9.20;6.60;;;;;;;;;;4997278;28;20393;-47
2023/08/22 05:14:08;;;;;;;12.38;6.88;;;;;;;;;;4994778;28;20117;-48
2023/08/22 05:16:34;;;;;;;8.15;6.13;;;;;;;;;;4998022;28;20468;-47
2023/08/22 05:18:59;;;;;;;7.70;6.90;;;;;;;;;;4996116;28;20066;-51
2023/08/22 05:21:25;;;;;;;8.52;6.68;;;;;;;;;;4998576;28;20033;-48
2023/08/22 05:23:50;;;;;;;10.00;6.80;;;;;;;;;;4996251;28;20045;-52
2023/08/22 05:26:17;;;;;;;16.65;6.90;;;;;;;;;;4999178;28;20034;-51
2023/08/22 05:28:42;;;;;;;14.18;6.53;;;;;;;;;;4995400;28;20057;-48
2023/08/22 05:31:08;;;;;;;10.05;6.93;;;;;;;;;;4995197;28;20501;-47
2023/08/22 05:33:33;;;;;;;9.63;6.70;;;;;;;;;;4990959;28;20034;-47
2023/08/22 05:35:59;;;;;;;8.32;6.60;;;;;;;;;;4996324;28;20515;-47
2023/08/22 05:38:24;;;;;;;9.80;6.50;;;;;;;;;;4996859;28;20050;-49
2023/08/22 05:40:50;;;;;;;9.00;6.20;;;;;;;;;;4990821;28;20083;-46
2023/08/22 05:43:15;;;;;;;12.18;6.55;;;;;;;;;;4997218;28;20041;-49
2023/08/22 05:45:42;;;;;;;12.07;7.30;;;;;;;;;;4999071;28;20061;-50
2023/08/22 05:48:07;;;;;;;7.18;6.47;;;;;;;;;;4995538;28;20038;-47
2023/08/22 05:50:33;;;;;;;7.88;6.00;;;;;;;;;;4996491;28;20018;-47
2023/08/22 05:52:58;;;;;;;10.15;6.40;;;;;;;;;;4994773;28;20041;-47
2023/08/22 05:55:23;;;;;;;13.88;6.47;;;;;;;;;;4992280;28;20536;-48
2023/08/22 05:57:49;;;;;;;10.63;6.88;;;;;;;;;;4996002;28;20511;-49
2023/08/22 06:00:15;;;;;;;7.93;6.35;;;;;;;;;;4991291;28;20085;-48
2023/08/22 06:02:41;;;;;;;9.60;6.30;;;;;;;;;;4993703;28;20396;-48
2023/08/22 06:05:06;;;;;;;9.50;6.55;;;;;;;;;;4995059;28;20022;-50
2023/08/22 06:07:32;;;;;;;7.40;6.30;;;;;;;;;;4995749;28;20081;-46
2023/08/22 06:09:58;;;;;;;8.60;6.50;;;;;;;;;;4998591;28;20582;-48
2023/08/22 06:12:24;;;;;;;9.40;6.75;;;;;;;;;;4997871;28;20033;-40
2023/08/22 06:14:50;;;;;;;7.80;6.38;;;;;;;;;;4995601;28;20096;-51
2023/08/22 06:17:15;;;;;;;7.10;6.20;;;;;;;;;;4988674;28;20018;-50
2023/08/22 06:19:41;;;;;;;9.65;6.97;;;;;;;;;;5003757;28;20070;-48
2023/08/22 06:22:06;;;;;;;14.40;6.97;;;;;;;;;;4995085;28;20021;-49
2023/08/22 06:24:31;;;;;;;13.65;7.13;;;;;;;;;;4983264;28;20042;-53
2023/08/22 06:26:57;;;;;;;10.13;7.07;;;;;;;;;;4995246;28;20121;-49
2023/08/22 06:29:22;;;;;;;10.30;6.82;;;;;;;;;;4995180;28;20061;-47
2023/08/22 06:31:48;;;;;;;9.65;7.05;;;;;;;;;;4999037;28;20026;-52
2023/08/22 06:34:13;;;;;;;10.52;6.80;;;;;;;;;;4997874;28;20046;-51
2023/08/22 06:36:39;;;;;;;12.07;6.80;;;;;;;;;;4996939;28;20058;-49
2023/08/22 06:39:05;;;;;;;10.35;6.43;;;;;;;;;;4996056;28;20038;-49
2023/08/22 06:41:30;;;;;;;9.00;7.70;;;;;;;;;;4992993;28;20038;-52
2023/08/22 06:43:56;;;;;;;13.82;6.97;;;;;;;;;;4993486;28;20037;-47
2023/08/22 06:46:21;;;;;;;22.17;7.32;;;;;;;;;;4998147;28;20026;-46
2023/08/22 06:48:50;;;;;;;17.20;7.53;;;;;;;;;;4997625;28;20255;-50
2023/08/22 06:51:16;;;;;;;13.15;6.60;;;;;;;;;;4997941;28;20038;-53
2023/08/22 06:53:41;;;;;;;12.75;6.88;;;;;;;;;;4997381;28;20054;-48
2023/08/22 06:56:08;;;;;;;9.68;6.70;;;;;;;;;;4998100;28;20037;-48
2023/08/22 06:58:33;;;;;;;8.50;6.05;;;;;;;;;;4995954;28;20038;-50
2023/08/22 07:00:59;;;;;;;8.65;6.45;;;;;;;;;;4990645;28;20022;-49
2023/08/22 07:03:24;;;;;;;8.00;6.32;;;;;;;;;;5005618;28;20042;-51
2023/08/22 07:05:52;;;;;;;16.45;7.00;;;;;;;;;;4997690;28;20023;-48
2023/08/22 07:08:18;;;;;;;8.70;6.63;;;;;;;;;;4993154;28;20093;-51
2023/08/22 07:10:43;;;;;;;20.40;7.38;;;;;;;;;;4995935;28;20033;-52
2023/08/22 07:13:09;;;;;;;12.60;6.80;;;;;;;;;;4997521;28;20587;-50
2023/08/22 07:15:34;;;;;;;10.05;7.10;;;;;;;;;;4995169;28;20634;-49
2023/08/22 07:18:00;;;;;;;11.40;6.45;;;;;;;;;;4996664;28;20077;-50
2023/08/22 07:20:25;;;;;;;6.80;6.13;;;;;;;;;;4996123;28;20053;-49
2023/08/22 07:22:50;;;;;;;8.63;6.88;;;;;;;;;;4994927;28;20062;-51
2023/08/22 07:25:16;;;;;;;13.40;6.53;;;;;;;;;;4993073;28;20412;-50
2023/08/22 07:27:41;;;;;;;12.48;6.15;;;;;;;;;;4994081;28;20038;-51
2023/08/22 07:30:07;;;;;;;7.97;6.05;;;;;;;;;;4996000;28;20032;-50
2023/08/22 07:32:33;;;;;;;11.68;6.65;;;;;;;;;;4996566;28;20041;-52
2023/08/22 07:34:58;;;;;;;18.83;7.05;;;;;;;;;;4995517;28;20085;-51
2023/08/22 07:37:24;;;;;;;11.65;6.53;;;;;;;;;;4994671;28;20022;-42
2023/08/22 07:39:49;;;;;;;25.55;6.60;;;;;;;;;;4998957;28;20034;-53
2023/08/22 07:42:16;;;;;;;10.85;6.65;;;;;;;;;;5001624;28;20022;-51
2023/08/22 07:44:41;;;;;;;14.55;6.75;;;;;;;;;;4994148;28;20051;-53
2023/08/22 07:47:07;;;;;;;9.70;6.72;;;;;;;;;;4995161;28;20022;-52
2023/08/22 07:49:33;;;;;;;20.98;6.85;;;;;;;;;;4996033;28;20443;-52
2023/08/22 07:51:59;;;;;;;12.50;7.13;;;;;;;;;;4994383;28;20483;-49
2023/08/22 07:54:24;;;;;;;12.45;6.80;;;;;;;;;;4993051;28;20043;-50
2023/08/22 07:56:50;;;;;;;12.02;6.78;;;;;;;;;;4995189;28;20118;-49
2023/08/22 07:59:15;;;;;;;15.40;6.90;;;;;;;;;;4995996;28;20038;-51
2023/08/22 08:01:41;;;;;;;14.02;6.88;;;;;;;;;;4995025;28;20026;-51
2023/08/22 08:04:08;;;;;;;10.02;6.55;;;;;;;;;;4994682;28;20120;-49
2023/08/22 08:06:34;;;;;;;10.55;7.00;;;;;;;;;;4995228;28;20049;-47
2023/08/22 08:09:00;;;;;;;19.13;7.78;;;;;;;;;;4994742;28;20030;-53
2023/08/22 08:11:28;;;;;;;15.93;8.63;;;;;;;;;;4995261;28;20478;-51
2023/08/22 08:13:53;;;;;;;19.23;9.15;;;;;;;;;;4995759;28;20408;-51
2023/08/22 08:16:19;;;;;;;28.00;10.98;;;;;;;;;;4993674;28;20038;-49
2023/08/22 08:18:44;;;;;;;19.40;10.40;;;;;;;;;;5000785;28;20089;-49
2023/08/22 08:21:09;;;;;;;18.10;10.00;;;;;;;;;;4992331;28;20113;-49
2023/08/22 08:23:35;;;;;;;27.63;10.00;;;;;;;;;;4999641;28;20045;-52
2023/08/22 08:26:03;;;;;;;22.48;9.25;;;;;;;;;;4993144;28;20033;-50
2023/08/22 08:28:28;;;;;;;13.43;9.60;;;;;;;;;;4992002;28;20034;-49
2023/08/22 08:30:54;;;;;;;22.33;9.93;;;;;;;;;;4994698;28;20030;-50
2023/08/22 08:33:19;;;;;;;14.45;9.57;;;;;;;;;;4995436;28;20050;-50
2023/08/22 08:35:45;;;;;;;9.82;8.82;;;;;;;;;;4993333;28;20078;-51
2023/08/22 08:38:10;;;;;;;16.20;9.57;;;;;;;;;;4993413;28;20038;-52
2023/08/22 08:40:36;;;;;;;16.85;9.77;;;;;;;;;;4995566;28;20022;-51
2023/08/22 08:43:03;;;;;;;12.45;9.20;;;;;;;;;;4994747;28;20045;-48
2023/08/22 08:45:30;;;;;;;16.00;10.15;;;;;;;;;;4995432;28;20024;-50
2023/08/22 08:47:58;;;;;;;19.33;9.23;;;;;;;;;;4994408;28;20121;-48
2023/08/22 08:50:25;;;;;;;12.27;9.40;;;;;;;;;;4994709;28;20030;-48
2023/08/22 08:52:50;;;;;;;14.55;9.43;;;;;;;;;;4995987;28;20054;-49
2023/08/22 08:55:16;;;;;;;20.80;9.02;;;;;;;;;;4995293;28;20029;-51
2023/08/22 08:57:41;;;;;;;22.85;9.35;;;;;;;;;;4989153;28;20515;-49
2023/08/22 09:00:07;;;;;;;30.95;10.63;;;;;;;;;;4995848;28;20026;-50
2023/08/22 09:02:33;;;;;;;10.02;8.85;;;;;;;;;;4993340;28;20077;-51
2023/08/22 09:04:58;;;;;;;20.23;9.38;;;;;;;;;;4991558;28;20022;-48
2023/08/22 09:07:24;;;;;;;19.75;9.98;;;;;;;;;;4994056;28;20081;-53
2023/08/22 09:09:49;;;;;;;11.93;9.20;;;;;;;;;;4995879;28;20038;-50
2023/08/22 09:12:15;;;;;;;16.40;8.65;;;;;;;;;;4993878;28;20026;-49
2023/08/22 09:14:46;;;;;;;13.25;9.07;;;;;;;;;;4992286;28;20030;-51
2023/08/22 09:17:15;;;;;;;19.25;9.07;;;;;;;;;;4995448;28;20045;-52
2023/08/22 09:19:41;;;;;;;25.00;9.50;;;;;;;;;;4994618;28;20045;-54
2023/08/22 09:22:07;;;;;;;14.70;8.80;;;;;;;;;;4995523;28;20027;-50
2023/08/22 09:24:34;;;;;;;16.33;7.97;;;;;;;;;;4993619;28;20122;-51
2023/08/22 09:27:06;;;;;;;19.13;10.05;;;;;;;;;;4994551;28;20394;-50
2023/08/22 09:29:33;;;;;;;18.52;8.18;;;;;;;;;;4990148;28;20125;-52
2023/08/22 09:32:02;;;;;;;17.02;8.40;;;;;;;;;;4989822;28;20081;-48
2023/08/22 09:34:27;;;;;;;15.30;7.70;;;;;;;;;;4991147;28;20035;-51
2023/08/22 09:36:55;;;;;;;12.82;8.50;;;;;;;;;;4995338;28;20057;-53
2023/08/22 09:39:22;;;;;;;14.10;8.45;;;;;;;;;;4995491;28;20034;-51
2023/08/22 09:41:54;;;;;;;13.13;8.20;;;;;;;;;;4994169;28;20053;-53
2023/08/22 09:44:25;;;;;;;;;;;;;;;;;;4994268;28;20428;-48
2023/08/22 09:46:51;;;;;;;;;;;;;;;;;;4998699;28;19928;-49
2023/08/22 09:49:17;;;;;;;16.75;8.77;;;;;;;;;;4996253;28;20435;-49
2023/08/22 09:51:45;;;;;;;8.98;7.93;;;;;;;;;;4998260;28;20058;-50
2023/08/22 09:54:12;;;;;;;13.65;8.00;;;;;;;;;;4996914;28;20046;-49
2023/08/22 09:56:37;;;;;;;12.25;8.57;;;;;;;;;;4997449;28;20034;-48
2023/08/22 09:59:03;;;;;;;9.57;8.40;;;;;;;;;;4998538;28;20039;-50
2023/08/22 10:01:32;;;;;;;14.23;7.88;;;;;;;;;;4997949;28;20022;-48
2023/08/22 10:04:00;;;;;;;13.82;7.88;;;;;;;;;;4996917;28;20046;-50
2023/08/22 10:06:29;;;;;;;13.75;7.80;;;;;;;;;;4997465;28;20034;-51
2023/08/22 10:08:55;;;;;;;13.52;7.70;;;;;;;;;;4995856;28;20045;-50
2023/08/22 10:11:21;;;;;;;19.67;7.72;;;;;;;;;;4996956;28;20043;-51
2023/08/22 10:13:48;;;;;;;11.38;7.10;;;;;;;;;;4996949;28;20034;-50
2023/08/22 10:16:14;;;;;;;12.18;6.72;;;;;;;;;;4997125;28;20034;-50
2023/08/22 10:18:40;;;;;;;13.05;7.65;;;;;;;;;;5004583;28;20034;-48
2023/08/22 10:21:05;;;;;;;17.17;7.80;;;;;;;;;;4995720;28;20038;-51
2023/08/22 10:23:51;;;;;;;8.05;7.00;;;;;;;;;;4992923;28;20408;-53
2023/08/22 10:26:16;;;;;;;7.05;6.43;;;;;;;;;;4987765;28;20504;-52
2023/08/22 10:28:42;;;;;;;13.82;6.80;;;;;;;;;;4997160;28;20412;-49
2023/08/22 10:31:09;;;;;;;13.35;6.90;;;;;;;;;;4996493;28;20064;-52
2023/08/22 10:33:34;;;;;;;12.88;6.43;;;;;;;;;;4998194;28;20496;-48
2023/08/22 10:36:17;;;;;;;7.82;6.10;;;;;;;;;;4998227;28;20045;-53
2023/08/22 10:38:55;;;;;;;13.45;6.05;;;;;;;;;;4997086;28;20046;-50
2023/08/22 10:41:23;;;;;;;11.20;5.47;;;;;;;;;;5006003;28;20033;-49
2023/08/22 10:43:49;;;;;;;11.15;5.95;;;;;;;;;;4996614;28;20073;-50
2023/08/22 10:46:14;;;;;;;8.77;5.00;;;;;;;;;;4995043;28;20026;-53
2023/08/22 10:48:40;;;;;;;9.70;5.10;;;;;;;;;;4995545;28;20409;-51
2023/08/22 10:51:07;;;;;;;9.75;5.28;;;;;;;;;;4997018;28;20030;-50
2023/08/22 10:53:43;;;;;;;14.38;5.07;;;;;;;;;;4995264;28;20047;-52
2023/08/22 10:56:22;;;;;;;11.38;4.85;;;;;;;;;;4996577;28;20029;-49
2023/08/22 10:58:58;;;;;;;14.05;4.90;;;;;;;;;;4991610;28;20104;-52
2023/08/22 11:01:24;;;;;;;9.40;4.25;;;;;;;;;;4994299;28;20038;-52
2023/08/22 11:03:51;;;;;;;12.13;4.30;;;;;;;;;;4996411;28;20042;-50
2023/08/22 11:06:18;;;;;;;13.52;4.65;;;;;;;;;;4996645;28;20023;-52
2023/08/22 11:08:44;;;;;;;9.18;3.80;;;;;;;;;;4997136;28;20088;-53
2023/08/22 11:11:12;;;;;;;10.68;4.55;;;;;;;;;;4995119;28;20030;-52
2023/08/22 11:13:38;;;;;;;13.95;4.47;;;;;;;;;;4993324;28;20046;-48
2023/08/22 11:16:11;;;;;;;8.30;4.45;;;;;;;;;;4992954;28;20026;-50
2023/08/22 11:18:39;;;;;;;13.95;4.75;;;;;;;;;;4993750;28;20038;-53
2023/08/22 11:21:05;;;;;;;9.50;4.60;;;;;;;;;;4994024;28;20420;-50
2023/08/22 11:23:32;;;;;;;10.55;4.75;;;;;;;;;;4993640;28;20035;-53
2023/08/22 11:25:57;;;;;;;9.55;4.70;;;;;;;;;;4996178;28;20109;-50
2023/08/22 11:28:33;;;;;;;13.60;4.72;;;;;;;;;;4993736;28;20071;-53
2023/08/22 11:30:59;;;;;;;8.23;5.07;;;;;;;;;;4995261;28;20022;-53
2023/08/22 11:33:25;;;;;;;11.52;5.05;;;;;;;;;;4999908;28;20038;-52
2023/08/22 11:35:52;;;;;;;15.05;4.63;;;;;;;;;;5002663;28;20041;-52
2023/08/22 11:38:18;;;;;;;13.45;4.70;;;;;;;;;;4997866;28;20121;-50
2023/08/22 11:40:43;;;;;;;17.92;5.18;;;;;;;;;;4994414;28;20030;-50
2023/08/22 11:43:10;;;;;;;15.48;5.20;;;;;;;;;;4994541;28;20026;-52
2023/08/22 11:45:46;;;;;;;14.30;5.18;;;;;;;;;;4997338;28;20030;-48
2023/08/22 11:48:16;;;;;;;11.73;5.10;;;;;;;;;;4995309;28;20045;-48
2023/08/22 11:50:43;;;;;;;9.27;5.45;;;;;;;;;;4996722;28;20250;-51
2023/08/22 11:53:12;;;;;;;13.52;6.10;;;;;;;;;;4994796;28;20508;-50
2023/08/22 11:55:46;;;;;;;17.42;5.57;;;;;;;;;;4993490;28;20078;-51
2023/08/22 11:58:17;;;;;;;16.27;5.68;;;;;;;;;;4995348;28;20046;-50
2023/08/22 12:00:43;;;;;;;14.93;6.18;;;;;;;;;;4994262;28;20073;-51
2023/08/22 12:03:09;;;;;;;20.05;5.78;;;;;;;;;;4996598;28;20409;-53
2023/08/22 12:05:41;;;;;;;15.77;5.68;;;;;;;;;;4994155;28;20030;-49
2023/08/22 12:08:06;;;;;;;19.88;6.05;;;;;;;;;;4996985;28;20089;-52
2023/08/22 12:10:43;;;;;;;17.30;6.28;;;;;;;;;;4995781;28;20490;-52
2023/08/22 12:13:09;;;;;;;22.48;6.38;;;;;;;;;;4995895;28;20034;-51
2023/08/22 12:15:36;;;;;;;19.40;5.80;;;;;;;;;;4996320;28;20045;-50
2023/08/22 12:18:04;;;;;;;20.35;6.13;;;;;;;;;;5000545;28;20033;-51
2023/08/22 12:20:30;;;;;;;18.48;6.20;;;;;;;;;;4993539;28;20112;-51
2023/08/22 12:22:56;;;;;;;24.50;6.63;;;;;;;;;;4996018;28;20441;-51
2023/08/22 12:25:21;;;;;;;18.10;6.10;;;;;;;;;;4996135;28;20084;-52
2023/08/22 12:27:47;;;;;;;16.77;5.20;;;;;;;;;;4994640;28;20054;-52
2023/08/22 12:30:12;;;;;;;17.48;6.03;;;;;;;;;;4995671;28;20040;-51
2023/08/22 12:32:38;;;;;;;19.48;5.80;;;;;;;;;;4994116;28;20030;-52
2023/08/22 12:35:04;;;;;;;24.95;5.78;;;;;;;;;;4995048;28;20038;-48
2023/08/22 12:37:30;;;;;;;13.02;5.88;;;;;;;;;;4995799;28;20026;-51
2023/08/22 12:39:55;;;;;;;12.48;5.75;;;;;;;;;;4995140;28;20038;-49
2023/08/22 12:42:20;;;;;;;20.83;6.28;;;;;;;;;;4993089;28;20053;-52
2023/08/22 12:44:46;;;;;;;18.33;5.47;;;;;;;;;;4995158;28;20042;-49
2023/08/22 12:47:11;;;;;;;19.23;6.20;;;;;;;;;;4996163;28;20066;-50
2023/08/22 12:49:37;;;;;;;12.75;6.07;;;;;;;;;;4989268;28;20031;-50
2023/08/22 12:52:03;;;;;;;15.43;6.30;;;;;;;;;;4995948;28;20097;-51
2023/08/22 12:54:28;;;;;;;19.88;5.93;;;;;;;;;;4994432;28;20038;-54
2023/08/22 12:56:56;;;;;;;24.83;6.82;;;;;;;;;;4995712;28;20049;-48
2023/08/22 12:59:22;;;;;;;16.77;5.75;;;;;;;;;;4993518;28;20045;-52
2023/08/22 13:01:48;;;;;;;11.82;6.55;;;;;;;;;;4996390;28;20030;-52
2023/08/22 13:04:13;;;;;;;19.52;6.50;;;;;;;;;;4993936;28;20396;-50
2023/08/22 13:06:39;;;;;;;19.25;5.65;;;;;;;;;;4993250;28;20019;-48
2023/08/22 13:09:10;;;;;;;19.13;6.30;;;;;;;;;;4993576;28;20043;-49
2023/08/22 13:11:38;;;;;;;17.60;6.07;;;;;;;;;;4995135;28;20029;-54
2023/08/22 13:14:03;;;;;;;18.02;6.13;;;;;;;;;;4994310;28;20045;-49
2023/08/22 13:16:29;;;;;;;20.45;6.55;;;;;;;;;;4995829;28;20022;-48
2023/08/22 13:18:54;;;;;;;14.70;5.70;;;;;;;;;;4990741;28;20046;-48
2023/08/22 13:21:20;;;;;;;34.38;6.47;;;;;;;;;;4993657;28;20045;-49
2023/08/22 13:23:47;;;;;;;23.92;6.18;;;;;;;;;;4999206;28;20049;-49
2023/08/22 13:26:12;;;;;;;15.07;6.10;;;;;;;;;;4998058;28;20037;-48
2023/08/22 13:28:38;;;;;;;13.35;6.50;;;;;;;;;;4997773;28;20038;-50
2023/08/22 13:31:03;;;;;;;18.10;5.72;;;;;;;;;;4998066;28;20424;-49
2023/08/22 13:33:29;;;;;;;15.50;6.28;;;;;;;;;;4999255;28;20046;-51
2023/08/22 13:35:54;;;;;;;24.67;5.90;;;;;;;;;;4997916;28;20039;-50
2023/08/22 13:38:20;;;;;;;21.67;6.20;;;;;;;;;;4996245;28;20043;-50
2023/08/22 13:40:45;;;;;;;18.83;6.10;;;;;;;;;;4995259;28;20128;-48
2023/08/22 13:43:11;;;;;;;24.73;6.53;;;;;;;;;;4997831;28;20030;-52
2023/08/22 13:45:36;;;;;;;15.82;6.00;;;;;;;;;;4996230;28;20117;-50
2023/08/22 13:48:02;;;;;;;21.15;5.85;;;;;;;;;;4997245;28;20038;-48
2023/08/22 13:50:28;;;;;;;16.00;5.47;;;;;;;;;;4997740;28;21565;-49
2023/08/22 13:52:53;;;;;;;24.33;6.47;;;;;;;;;;4998226;28;20122;-49
2023/08/22 13:55:19;;;;;;;26.98;6.82;;;;;;;;;;4997604;28;20057;-55
2023/08/22 13:57:44;;;;;;;16.30;5.68;;;;;;;;;;4997380;28;20039;-49
2023/08/22 14:00:10;;;;;;;22.40;6.50;;;;;;;;;;4998724;28;20037;-50
2023/08/22 14:02:36;;;;;;;19.30;5.55;;;;;;;;;;4996014;28;20042;-47
2023/08/22 14:05:01;;;;;;;15.13;5.68;;;;;;;;;;4997435;28;20038;-53
2023/08/22 14:07:26;;;;;;;16.10;5.72;;;;;;;;;;4994054;28;20081;-49
2023/08/22 14:09:52;;;;;;;28.17;5.78;;;;;;;;;;4997223;28;20069;-49
2023/08/22 14:12:17;;;;;;;18.35;6.53;;;;;;;;;;4998580;28;20025;-51
2023/08/22 14:14:42;;;;;;;15.07;6.00;;;;;;;;;;4997373;28;20042;-52
2023/08/22 14:17:08;;;;;;;16.55;6.40;;;;;;;;;;4997002;28;20021;-47
2023/08/22 14:19:33;;;;;;;21.75;6.00;;;;;;;;;;4993082;28;20035;-51
2023/08/22 14:21:59;;;;;;;22.10;6.20;;;;;;;;;;4988316;28;20030;-49
2023/08/22 14:24:24;;;;;;;24.92;5.97;;;;;;;;;;5002243;28;20039;-52
2023/08/22 14:26:49;;;;;;;23.52;6.20;;;;;;;;;;4998198;28;20035;-50
2023/08/22 14:29:15;;;;;;;17.92;5.88;;;;;;;;;;4994260;28;20504;-49